sensor_id;sensor_type;location;lat;lon;timestamp;P1;durP1;ratioP1;P2;durP2;ratioP2
25481;SDS011;13395;50.752;4.268;2022-07-30T00:02:21;16.73;;;4.55;;
25481;SDS011;13395;50.752;4.268;2022-07-30T00:04:47;6.80;;;4.05;;
25481;SDS011;13395;50.752;4.268;2022-07-30T00:07:13;9.65;;;4.70;;
25481;SDS011;13395;50.752;4.268;2022-07-30T00:09:39;7.63;;;5.10;;
25481;SDS011;13395;50.752;4.268;2022-07-30T00:12:05;8.20;;;3.80;;
25481;SDS011;13395;50.752;4.268;2022-07-30T00:14:31;7.95;;;3.78;;
25481;SDS011;13395;50.752;4.268;2022-07-30T00:16:58;8.02;;;3.90;;
25481;SDS011;13395;50.752;4.268;2022-07-30T00:19:25;6.50;;;3.38;;
25481;SDS011;13395;50.752;4.268;2022-07-30T00:21:50;9.10;;;4.68;;
25481;SDS011;13395;50.752;4.268;2022-07-30T00:24:16;7.65;;;4.28;;
25481;SDS011;13395;50.752;4.268;2022-07-30T00:26:41;6.63;;;4.15;;
25481;SDS011;13395;50.752;4.268;2022-07-30T00:29:07;8.40;;;4.88;;
25481;SDS011;13395;50.752;4.268;2022-07-30T00:31:33;9.43;;;4.13;;
25481;SDS011;13395;50.752;4.268;2022-07-30T00:33:58;11.75;;;5.18;;
25481;SDS011;13395;50.752;4.268;2022-07-30T00:36:24;7.65;;;3.65;;
25481;SDS011;13395;50.752;4.268;2022-07-30T00:38:51;8.57;;;4.78;;
25481;SDS011;13395;50.752;4.268;2022-07-30T00:41:16;7.50;;;4.35;;
25481;SDS011;13395;50.752;4.268;2022-07-30T00:43:42;6.97;;;4.50;;
25481;SDS011;13395;50.752;4.268;2022-07-30T00:46:09;6.72;;;3.60;;
25481;SDS011;13395;50.752;4.268;2022-07-30T00:48:34;8.23;;;4.32;;
25481;SDS011;13395;50.752;4.268;2022-07-30T00:51:00;10.35;;;5.22;;
25481;SDS011;13395;50.752;4.268;2022-07-30T00:53:26;8.85;;;4.75;;
25481;SDS011;13395;50.752;4.268;2022-07-30T00:55:51;10.68;;;4.78;;
25481;SDS011;13395;50.752;4.268;2022-07-30T00:58:17;8.50;;;5.15;;
25481;SDS011;13395;50.752;4.268;2022-07-30T01:00:43;6.82;;;4.70;;
25481;SDS011;13395;50.752;4.268;2022-07-30T01:03:08;7.47;;;4.40;;
25481;SDS011;13395;50.752;4.268;2022-07-30T01:05:34;7.30;;;4.50;;
25481;SDS011;13395;50.752;4.268;2022-07-30T01:08:00;7.22;;;4.40;;
25481;SDS011;13395;50.752;4.268;2022-07-30T01:10:26;8.18;;;4.70;;
25481;SDS011;13395;50.752;4.268;2022-07-30T01:12:51;7.63;;;5.03;;
25481;SDS011;13395;50.752;4.268;2022-07-30T01:15:18;7.00;;;4.80;;
25481;SDS011;13395;50.752;4.268;2022-07-30T01:17:45;15.32;;;5.22;;
25481;SDS011;13395;50.752;4.268;2022-07-30T01:20:17;8.55;;;5.88;;
25481;SDS011;13395;50.752;4.268;2022-07-30T01:22:54;7.43;;;5.65;;
25481;SDS011;13395;50.752;4.268;2022-07-30T01:28:23;8.95;;;5.00;;
25481;SDS011;13395;50.752;4.268;2022-07-30T01:30:53;8.18;;;5.07;;
25481;SDS011;13395;50.752;4.268;2022-07-30T01:33:21;8.70;;;4.80;;
25481;SDS011;13395;50.752;4.268;2022-07-30T01:35:47;10.65;;;5.97;;
25481;SDS011;13395;50.752;4.268;2022-07-30T01:38:16;20.90;;;5.65;;
25481;SDS011;13395;50.752;4.268;2022-07-30T01:40:48;10.07;;;5.45;;
25481;SDS011;13395;50.752;4.268;2022-07-30T01:43:16;10.70;;;5.65;;
25481;SDS011;13395;50.752;4.268;2022-07-30T01:45:45;7.20;;;4.93;;
25481;SDS011;13395;50.752;4.268;2022-07-30T01:48:12;9.68;;;5.05;;
25481;SDS011;13395;50.752;4.268;2022-07-30T01:50:41;7.95;;;5.20;;
25481;SDS011;13395;50.752;4.268;2022-07-30T01:53:09;10.27;;;5.60;;
25481;SDS011;13395;50.752;4.268;2022-07-30T01:55:39;10.63;;;4.97;;
25481;SDS011;13395;50.752;4.268;2022-07-30T01:58:08;9.98;;;6.22;;
25481;SDS011;13395;50.752;4.268;2022-07-30T02:00:37;8.90;;;5.70;;
25481;SDS011;13395;50.752;4.268;2022-07-30T02:03:04;7.80;;;5.63;;
25481;SDS011;13395;50.752;4.268;2022-07-30T02:05:32;8.82;;;5.25;;
25481;SDS011;13395;50.752;4.268;2022-07-30T02:08:12;8.90;;;5.53;;
25481;SDS011;13395;50.752;4.268;2022-07-30T02:13:33;9.38;;;5.20;;
25481;SDS011;13395;50.752;4.268;2022-07-30T02:16:23;8.80;;;5.18;;
25481;SDS011;13395;50.752;4.268;2022-07-30T02:21:21;9.43;;;5.13;;
25481;SDS011;13395;50.752;4.268;2022-07-30T02:23:48;6.88;;;5.50;;
25481;SDS011;13395;50.752;4.268;2022-07-30T02:26:17;7.82;;;5.30;;
25481;SDS011;13395;50.752;4.268;2022-07-30T02:28:47;10.90;;;6.43;;
25481;SDS011;13395;50.752;4.268;2022-07-30T02:31:18;10.70;;;6.95;;
25481;SDS011;13395;50.752;4.268;2022-07-30T02:33:47;16.92;;;7.05;;
25481;SDS011;13395;50.752;4.268;2022-07-30T02:36:17;14.05;;;6.53;;
25481;SDS011;13395;50.752;4.268;2022-07-30T02:38:44;13.65;;;5.95;;
25481;SDS011;13395;50.752;4.268;2022-07-30T02:41:11;13.48;;;5.53;;
25481;SDS011;13395;50.752;4.268;2022-07-30T02:43:38;12.77;;;6.50;;
25481;SDS011;13395;50.752;4.268;2022-07-30T02:46:05;10.48;;;5.30;;
25481;SDS011;13395;50.752;4.268;2022-07-30T02:48:32;7.57;;;5.22;;
25481;SDS011;13395;50.752;4.268;2022-07-30T02:51:00;10.32;;;6.38;;
25481;SDS011;13395;50.752;4.268;2022-07-30T02:53:28;10.57;;;6.68;;
25481;SDS011;13395;50.752;4.268;2022-07-30T02:55:54;8.68;;;6.30;;
25481;SDS011;13395;50.752;4.268;2022-07-30T02:58:22;15.55;;;6.22;;
25481;SDS011;13395;50.752;4.268;2022-07-30T03:00:49;10.05;;;6.13;;
25481;SDS011;13395;50.752;4.268;2022-07-30T03:03:17;11.32;;;6.20;;
25481;SDS011;13395;50.752;4.268;2022-07-30T03:05:44;11.73;;;6.70;;
25481;SDS011;13395;50.752;4.268;2022-07-30T03:08:14;13.52;;;6.65;;
25481;SDS011;13395;50.752;4.268;2022-07-30T03:10:40;10.95;;;7.10;;
25481;SDS011;13395;50.752;4.268;2022-07-30T03:13:09;13.18;;;7.10;;
25481;SDS011;13395;50.752;4.268;2022-07-30T03:15:36;9.55;;;6.03;;
25481;SDS011;13395;50.752;4.268;2022-07-30T03:18:09;10.90;;;6.82;;
25481;SDS011;13395;50.752;4.268;2022-07-30T03:20:37;12.00;;;7.22;;
25481;SDS011;13395;50.752;4.268;2022-07-30T03:23:04;9.52;;;6.65;;
25481;SDS011;13395;50.752;4.268;2022-07-30T03:25:32;9.32;;;6.60;;
25481;SDS011;13395;50.752;4.268;2022-07-30T03:27:59;10.68;;;6.80;;
25481;SDS011;13395;50.752;4.268;2022-07-30T03:30:27;10.90;;;6.97;;
25481;SDS011;13395;50.752;4.268;2022-07-30T03:32:54;7.82;;;6.55;;
25481;SDS011;13395;50.752;4.268;2022-07-30T03:35:20;6.97;;;6.05;;
25481;SDS011;13395;50.752;4.268;2022-07-30T03:37:49;7.18;;;6.43;;
25481;SDS011;13395;50.752;4.268;2022-07-30T03:40:15;16.83;;;8.25;;
25481;SDS011;13395;50.752;4.268;2022-07-30T03:42:42;8.43;;;6.75;;
25481;SDS011;13395;50.752;4.268;2022-07-30T03:45:09;11.98;;;7.13;;
25481;SDS011;13395;50.752;4.268;2022-07-30T03:47:38;10.82;;;8.00;;
25481;SDS011;13395;50.752;4.268;2022-07-30T03:50:05;7.85;;;6.55;;
25481;SDS011;13395;50.752;4.268;2022-07-30T03:52:41;10.73;;;6.68;;
25481;SDS011;13395;50.752;4.268;2022-07-30T03:55:08;15.13;;;7.78;;
25481;SDS011;13395;50.752;4.268;2022-07-30T03:57:35;12.18;;;7.85;;
25481;SDS011;13395;50.752;4.268;2022-07-30T04:00:03;13.85;;;8.13;;
25481;SDS011;13395;50.752;4.268;2022-07-30T04:02:39;11.85;;;8.00;;
25481;SDS011;13395;50.752;4.268;2022-07-30T04:05:05;15.90;;;8.27;;
25481;SDS011;13395;50.752;4.268;2022-07-30T04:07:31;13.82;;;8.32;;
25481;SDS011;13395;50.752;4.268;2022-07-30T04:09:57;11.80;;;8.20;;
25481;SDS011;13395;50.752;4.268;2022-07-30T04:12:22;10.98;;;8.27;;
25481;SDS011;13395;50.752;4.268;2022-07-30T04:14:48;12.48;;;7.57;;
25481;SDS011;13395;50.752;4.268;2022-07-30T04:17:18;9.45;;;6.82;;
25481;SDS011;13395;50.752;4.268;2022-07-30T04:19:50;12.32;;;7.68;;
25481;SDS011;13395;50.752;4.268;2022-07-30T04:22:19;9.02;;;7.55;;
25481;SDS011;13395;50.752;4.268;2022-07-30T04:24:48;12.07;;;7.47;;
25481;SDS011;13395;50.752;4.268;2022-07-30T04:27:16;12.88;;;7.90;;
25481;SDS011;13395;50.752;4.268;2022-07-30T04:29:42;12.77;;;8.70;;
25481;SDS011;13395;50.752;4.268;2022-07-30T04:32:08;14.02;;;8.75;;
25481;SDS011;13395;50.752;4.268;2022-07-30T04:34:34;8.80;;;7.78;;
25481;SDS011;13395;50.752;4.268;2022-07-30T04:37:00;12.02;;;8.15;;
25481;SDS011;13395;50.752;4.268;2022-07-30T04:39:25;10.25;;;8.20;;
25481;SDS011;13395;50.752;4.268;2022-07-30T04:41:51;13.40;;;7.57;;
25481;SDS011;13395;50.752;4.268;2022-07-30T04:44:17;16.48;;;8.57;;
25481;SDS011;13395;50.752;4.268;2022-07-30T04:46:44;11.13;;;7.38;;
25481;SDS011;13395;50.752;4.268;2022-07-30T04:49:10;13.20;;;7.82;;
25481;SDS011;13395;50.752;4.268;2022-07-30T04:51:37;11.05;;;8.88;;
25481;SDS011;13395;50.752;4.268;2022-07-30T04:54:05;11.65;;;8.20;;
25481;SDS011;13395;50.752;4.268;2022-07-30T04:56:33;14.63;;;8.85;;
25481;SDS011;13395;50.752;4.268;2022-07-30T04:59:01;9.75;;;7.93;;
25481;SDS011;13395;50.752;4.268;2022-07-30T05:01:30;15.85;;;8.68;;
25481;SDS011;13395;50.752;4.268;2022-07-30T05:03:59;10.13;;;7.88;;
25481;SDS011;13395;50.752;4.268;2022-07-30T05:06:26;10.63;;;7.68;;
25481;SDS011;13395;50.752;4.268;2022-07-30T05:08:52;12.57;;;9.00;;
25481;SDS011;13395;50.752;4.268;2022-07-30T05:11:19;13.32;;;8.50;;
25481;SDS011;13395;50.752;4.268;2022-07-30T05:13:45;9.45;;;7.55;;
25481;SDS011;13395;50.752;4.268;2022-07-30T05:16:12;10.27;;;6.95;;
25481;SDS011;13395;50.752;4.268;2022-07-30T05:18:39;10.10;;;6.30;;
25481;SDS011;13395;50.752;4.268;2022-07-30T05:21:05;13.85;;;6.32;;
25481;SDS011;13395;50.752;4.268;2022-07-30T05:23:31;10.13;;;5.90;;
25481;SDS011;13395;50.752;4.268;2022-07-30T05:25:57;8.60;;;6.25;;
25481;SDS011;13395;50.752;4.268;2022-07-30T05:28:22;13.32;;;5.78;;
25481;SDS011;13395;50.752;4.268;2022-07-30T05:30:50;14.50;;;7.07;;
25481;SDS011;13395;50.752;4.268;2022-07-30T05:33:17;12.60;;;6.70;;
25481;SDS011;13395;50.752;4.268;2022-07-30T05:35:42;13.77;;;7.13;;
25481;SDS011;13395;50.752;4.268;2022-07-30T05:38:08;10.40;;;6.70;;
25481;SDS011;13395;50.752;4.268;2022-07-30T05:40:33;11.77;;;7.38;;
25481;SDS011;13395;50.752;4.268;2022-07-30T05:42:59;8.85;;;6.78;;
25481;SDS011;13395;50.752;4.268;2022-07-30T05:45:25;13.25;;;7.35;;
25481;SDS011;13395;50.752;4.268;2022-07-30T05:47:50;17.27;;;7.65;;
25481;SDS011;13395;50.752;4.268;2022-07-30T05:50:16;10.50;;;7.35;;
25481;SDS011;13395;50.752;4.268;2022-07-30T05:52:42;12.52;;;7.82;;
25481;SDS011;13395;50.752;4.268;2022-07-30T05:55:08;10.05;;;7.50;;
25481;SDS011;13395;50.752;4.268;2022-07-30T05:57:34;15.05;;;9.50;;
25481;SDS011;13395;50.752;4.268;2022-07-30T06:00:00;17.27;;;11.60;;
25481;SDS011;13395;50.752;4.268;2022-07-30T06:02:28;14.93;;;10.68;;
25481;SDS011;13395;50.752;4.268;2022-07-30T06:04:54;19.88;;;12.95;;
25481;SDS011;13395;50.752;4.268;2022-07-30T06:07:19;18.48;;;12.63;;
25481;SDS011;13395;50.752;4.268;2022-07-30T06:09:45;21.40;;;12.05;;
25481;SDS011;13395;50.752;4.268;2022-07-30T06:12:11;23.05;;;13.45;;
25481;SDS011;13395;50.752;4.268;2022-07-30T06:14:36;19.08;;;13.00;;
25481;SDS011;13395;50.752;4.268;2022-07-30T06:17:02;20.08;;;14.15;;
25481;SDS011;13395;50.752;4.268;2022-07-30T06:19:28;18.42;;;13.82;;
25481;SDS011;13395;50.752;4.268;2022-07-30T06:21:53;25.88;;;14.80;;
25481;SDS011;13395;50.752;4.268;2022-07-30T06:24:19;21.75;;;14.43;;
25481;SDS011;13395;50.752;4.268;2022-07-30T06:26:44;31.58;;;14.85;;
25481;SDS011;13395;50.752;4.268;2022-07-30T06:29:10;24.08;;;15.02;;
25481;SDS011;13395;50.752;4.268;2022-07-30T06:31:36;22.10;;;13.93;;
25481;SDS011;13395;50.752;4.268;2022-07-30T06:34:04;23.70;;;13.73;;
25481;SDS011;13395;50.752;4.268;2022-07-30T06:36:29;21.73;;;14.23;;
25481;SDS011;13395;50.752;4.268;2022-07-30T06:38:55;19.92;;;14.15;;
25481;SDS011;13395;50.752;4.268;2022-07-30T06:41:20;20.42;;;13.98;;
25481;SDS011;13395;50.752;4.268;2022-07-30T06:43:46;23.98;;;15.48;;
25481;SDS011;13395;50.752;4.268;2022-07-30T06:46:12;26.00;;;14.75;;
25481;SDS011;13395;50.752;4.268;2022-07-30T06:48:37;17.88;;;13.32;;
25481;SDS011;13395;50.752;4.268;2022-07-30T06:51:03;17.65;;;13.98;;
25481;SDS011;13395;50.752;4.268;2022-07-30T06:53:29;42.88;;;14.60;;
25481;SDS011;13395;50.752;4.268;2022-07-30T06:55:55;20.85;;;12.70;;
25481;SDS011;13395;50.752;4.268;2022-07-30T06:58:20;30.30;;;14.88;;
25481;SDS011;13395;50.752;4.268;2022-07-30T07:00:46;25.00;;;12.18;;
25481;SDS011;13395;50.752;4.268;2022-07-30T07:03:11;15.82;;;10.07;;
25481;SDS011;13395;50.752;4.268;2022-07-30T07:05:37;22.42;;;11.48;;
25481;SDS011;13395;50.752;4.268;2022-07-30T07:08:03;14.18;;;8.88;;
25481;SDS011;13395;50.752;4.268;2022-07-30T07:10:28;14.23;;;9.35;;
25481;SDS011;13395;50.752;4.268;2022-07-30T07:12:54;14.95;;;8.55;;
25481;SDS011;13395;50.752;4.268;2022-07-30T07:15:20;13.32;;;8.90;;
25481;SDS011;13395;50.752;4.268;2022-07-30T07:17:46;13.70;;;8.25;;
25481;SDS011;13395;50.752;4.268;2022-07-30T07:20:11;15.95;;;8.13;;
25481;SDS011;13395;50.752;4.268;2022-07-30T07:22:37;13.32;;;8.52;;
25481;SDS011;13395;50.752;4.268;2022-07-30T07:25:03;13.60;;;7.53;;
25481;SDS011;13395;50.752;4.268;2022-07-30T07:27:29;9.02;;;6.90;;
25481;SDS011;13395;50.752;4.268;2022-07-30T07:29:55;10.80;;;6.65;;
25481;SDS011;13395;50.752;4.268;2022-07-30T07:32:21;12.63;;;6.88;;
25481;SDS011;13395;50.752;4.268;2022-07-30T07:34:47;8.38;;;5.93;;
25481;SDS011;13395;50.752;4.268;2022-07-30T07:37:12;10.63;;;7.13;;
25481;SDS011;13395;50.752;4.268;2022-07-30T07:39:40;7.35;;;5.63;;
25481;SDS011;13395;50.752;4.268;2022-07-30T07:42:05;9.00;;;5.75;;
25481;SDS011;13395;50.752;4.268;2022-07-30T07:44:31;7.90;;;5.18;;
25481;SDS011;13395;50.752;4.268;2022-07-30T07:46:57;15.60;;;6.38;;
25481;SDS011;13395;50.752;4.268;2022-07-30T07:49:22;8.68;;;5.63;;
25481;SDS011;13395;50.752;4.268;2022-07-30T07:51:48;8.15;;;4.80;;
25481;SDS011;13395;50.752;4.268;2022-07-30T07:54:14;7.25;;;4.75;;
25481;SDS011;13395;50.752;4.268;2022-07-30T07:56:40;6.35;;;2.67;;
25481;SDS011;13395;50.752;4.268;2022-07-30T07:59:06;8.07;;;3.47;;
25481;SDS011;13395;50.752;4.268;2022-07-30T08:01:32;4.85;;;2.60;;
25481;SDS011;13395;50.752;4.268;2022-07-30T08:03:58;5.70;;;2.33;;
25481;SDS011;13395;50.752;4.268;2022-07-30T08:06:24;3.42;;;1.98;;
25481;SDS011;13395;50.752;4.268;2022-07-30T08:08:50;4.80;;;2.08;;
25481;SDS011;13395;50.752;4.268;2022-07-30T08:11:15;4.80;;;2.25;;
25481;SDS011;13395;50.752;4.268;2022-07-30T08:13:41;5.40;;;2.30;;
25481;SDS011;13395;50.752;4.268;2022-07-30T08:16:07;3.85;;;1.80;;
25481;SDS011;13395;50.752;4.268;2022-07-30T08:18:34;2.75;;;1.70;;
25481;SDS011;13395;50.752;4.268;2022-07-30T08:21:02;4.35;;;2.50;;
25481;SDS011;13395;50.752;4.268;2022-07-30T08:23:28;5.03;;;2.25;;
25481;SDS011;13395;50.752;4.268;2022-07-30T08:25:55;4.28;;;2.08;;
25481;SDS011;13395;50.752;4.268;2022-07-30T08:28:22;3.83;;;1.83;;
25481;SDS011;13395;50.752;4.268;2022-07-30T08:30:48;4.35;;;1.55;;
25481;SDS011;13395;50.752;4.268;2022-07-30T08:33:14;3.60;;;1.83;;
25481;SDS011;13395;50.752;4.268;2022-07-30T08:35:40;5.40;;;1.65;;
25481;SDS011;13395;50.752;4.268;2022-07-30T08:38:05;4.30;;;1.90;;
25481;SDS011;13395;50.752;4.268;2022-07-30T08:40:32;3.53;;;1.85;;
25481;SDS011;13395;50.752;4.268;2022-07-30T08:42:59;4.03;;;2.10;;
25481;SDS011;13395;50.752;4.268;2022-07-30T08:45:27;5.30;;;1.35;;
25481;SDS011;13395;50.752;4.268;2022-07-30T08:47:54;2.22;;;1.23;;
25481;SDS011;13395;50.752;4.268;2022-07-30T08:50:23;5.35;;;1.38;;
25481;SDS011;13395;50.752;4.268;2022-07-30T08:52:49;5.50;;;1.48;;
25481;SDS011;13395;50.752;4.268;2022-07-30T08:55:15;3.38;;;1.30;;
25481;SDS011;13395;50.752;4.268;2022-07-30T08:57:41;4.68;;;1.10;;
25481;SDS011;13395;50.752;4.268;2022-07-30T09:00:07;2.40;;;1.00;;
25481;SDS011;13395;50.752;4.268;2022-07-30T09:02:33;6.50;;;1.33;;
25481;SDS011;13395;50.752;4.268;2022-07-30T09:04:59;3.58;;;1.20;;
25481;SDS011;13395;50.752;4.268;2022-07-30T09:07:25;4.13;;;1.38;;
25481;SDS011;13395;50.752;4.268;2022-07-30T09:09:50;3.95;;;1.30;;
25481;SDS011;13395;50.752;4.268;2022-07-30T09:12:36;2.40;;;1.30;;
25481;SDS011;13395;50.752;4.268;2022-07-30T09:15:03;3.13;;;1.85;;
25481;SDS011;13395;50.752;4.268;2022-07-30T09:20:14;3.70;;;1.20;;
25481;SDS011;13395;50.752;4.268;2022-07-30T09:22:43;5.30;;;1.40;;
25481;SDS011;13395;50.752;4.268;2022-07-30T09:25:11;4.07;;;1.25;;
25481;SDS011;13395;50.752;4.268;2022-07-30T09:27:47;3.40;;;1.30;;
25481;SDS011;13395;50.752;4.268;2022-07-30T09:30:14;4.00;;;1.33;;
25481;SDS011;13395;50.752;4.268;2022-07-30T09:32:51;3.60;;;1.02;;
25481;SDS011;13395;50.752;4.268;2022-07-30T09:35:18;2.75;;;1.20;;
25481;SDS011;13395;50.752;4.268;2022-07-30T09:37:45;3.55;;;1.05;;
25481;SDS011;13395;50.752;4.268;2022-07-30T09:40:14;3.97;;;0.90;;
25481;SDS011;13395;50.752;4.268;2022-07-30T09:42:42;3.15;;;1.10;;
25481;SDS011;13395;50.752;4.268;2022-07-30T09:45:12;3.08;;;1.00;;
25481;SDS011;13395;50.752;4.268;2022-07-30T09:47:39;4.07;;;1.30;;
25481;SDS011;13395;50.752;4.268;2022-07-30T09:55:06;6.47;;;1.20;;
25481;SDS011;13395;50.752;4.268;2022-07-30T09:57:33;4.15;;;1.30;;
25481;SDS011;13395;50.752;4.268;2022-07-30T10:00:14;3.60;;;1.25;;
25481;SDS011;13395;50.752;4.268;2022-07-30T10:05:11;3.67;;;1.02;;
25481;SDS011;13395;50.752;4.268;2022-07-30T10:07:39;4.43;;;1.30;;
25481;SDS011;13395;50.752;4.268;2022-07-30T10:10:25;3.33;;;1.35;;
25481;SDS011;13395;50.752;4.268;2022-07-30T10:12:58;2.80;;;1.10;;
25481;SDS011;13395;50.752;4.268;2022-07-30T10:15:27;3.90;;;1.50;;
25481;SDS011;13395;50.752;4.268;2022-07-30T10:17:58;3.03;;;1.30;;
25481;SDS011;13395;50.752;4.268;2022-07-30T10:20:25;2.10;;;1.05;;
25481;SDS011;13395;50.752;4.268;2022-07-30T10:22:51;3.20;;;1.30;;
25481;SDS011;13395;50.752;4.268;2022-07-30T10:25:18;6.03;;;1.15;;
25481;SDS011;13395;50.752;4.268;2022-07-30T10:27:46;7.43;;;1.40;;
25481;SDS011;13395;50.752;4.268;2022-07-30T10:30:12;2.08;;;1.10;;
25481;SDS011;13395;50.752;4.268;2022-07-30T10:32:38;4.65;;;1.20;;
25481;SDS011;13395;50.752;4.268;2022-07-30T10:35:05;5.10;;;1.30;;
25481;SDS011;13395;50.752;4.268;2022-07-30T10:37:32;1.42;;;0.80;;
25481;SDS011;13395;50.752;4.268;2022-07-30T10:40:17;12.15;;;1.10;;
25481;SDS011;13395;50.752;4.268;2022-07-30T10:43:44;6.10;;;1.25;;
25481;SDS011;13395;50.752;4.268;2022-07-30T10:48:31;3.83;;;1.00;;
25481;SDS011;13395;50.752;4.268;2022-07-30T10:50:58;5.88;;;1.50;;
25481;SDS011;13395;50.752;4.268;2022-07-30T11:01:24;4.40;;;1.08;;
25481;SDS011;13395;50.752;4.268;2022-07-30T11:06:42;1.95;;;0.80;;
25481;SDS011;13395;50.752;4.268;2022-07-30T11:11:59;5.72;;;1.10;;
25481;SDS011;13395;50.752;4.268;2022-07-30T11:15:10;4.22;;;1.20;;
25481;SDS011;13395;50.752;4.268;2022-07-30T11:17:14;2.88;;;1.42;;
25481;SDS011;13395;50.752;4.268;2022-07-30T11:22:27;3.40;;;1.23;;
25481;SDS011;13395;50.752;4.268;2022-07-30T11:25:02;5.00;;;1.38;;
25481;SDS011;13395;50.752;4.268;2022-07-30T11:32:43;1.95;;;1.00;;
25481;SDS011;13395;50.752;4.268;2022-07-30T11:40:25;4.15;;;1.00;;
25481;SDS011;13395;50.752;4.268;2022-07-30T11:45:44;2.83;;;1.10;;
25481;SDS011;13395;50.752;4.268;2022-07-30T11:48:15;6.85;;;1.25;;
25481;SDS011;13395;50.752;4.268;2022-07-30T11:50:43;5.32;;;1.20;;
25481;SDS011;13395;50.752;4.268;2022-07-30T11:53:13;4.32;;;1.13;;
25481;SDS011;13395;50.752;4.268;2022-07-30T11:55:42;3.55;;;1.10;;
25481;SDS011;13395;50.752;4.268;2022-07-30T11:58:48;5.03;;;1.10;;
25481;SDS011;13395;50.752;4.268;2022-07-30T12:01:13;1.92;;;1.00;;
25481;SDS011;13395;50.752;4.268;2022-07-30T12:03:40;4.95;;;1.20;;
25481;SDS011;13395;50.752;4.268;2022-07-30T12:06:09;9.90;;;1.65;;
25481;SDS011;13395;50.752;4.268;2022-07-30T12:08:50;2.10;;;0.80;;
25481;SDS011;13395;50.752;4.268;2022-07-30T12:11:17;4.05;;;1.00;;
25481;SDS011;13395;50.752;4.268;2022-07-30T12:13:53;3.63;;;1.17;;
25481;SDS011;13395;50.752;4.268;2022-07-30T12:16:21;2.42;;;1.13;;
25481;SDS011;13395;50.752;4.268;2022-07-30T12:18:47;5.72;;;2.00;;
25481;SDS011;13395;50.752;4.268;2022-07-30T12:21:12;4.53;;;0.85;;
25481;SDS011;13395;50.752;4.268;2022-07-30T12:24:04;2.95;;;0.93;;
25481;SDS011;13395;50.752;4.268;2022-07-30T12:26:33;2.40;;;1.00;;
25481;SDS011;13395;50.752;4.268;2022-07-30T12:29:02;1.63;;;0.90;;
25481;SDS011;13395;50.752;4.268;2022-07-30T12:31:29;3.95;;;0.98;;
25481;SDS011;13395;50.752;4.268;2022-07-30T12:33:57;5.18;;;1.40;;
25481;SDS011;13395;50.752;4.268;2022-07-30T12:38:57;3.83;;;1.05;;
25481;SDS011;13395;50.752;4.268;2022-07-30T12:41:40;2.38;;;1.35;;
25481;SDS011;13395;50.752;4.268;2022-07-30T12:44:07;1.50;;;1.02;;
25481;SDS011;13395;50.752;4.268;2022-07-30T12:46:38;5.65;;;1.45;;
25481;SDS011;13395;50.752;4.268;2022-07-30T12:49:07;3.35;;;1.20;;
25481;SDS011;13395;50.752;4.268;2022-07-30T12:51:39;3.35;;;1.15;;
25481;SDS011;13395;50.752;4.268;2022-07-30T12:54:15;2.22;;;1.10;;
25481;SDS011;13395;50.752;4.268;2022-07-30T12:57:01;2.85;;;0.95;;
25481;SDS011;13395;50.752;4.268;2022-07-30T12:59:29;4.22;;;1.38;;
25481;SDS011;13395;50.752;4.268;2022-07-30T13:04:57;3.22;;;1.15;;
25481;SDS011;13395;50.752;4.268;2022-07-30T13:07:22;2.30;;;1.20;;
25481;SDS011;13395;50.752;4.268;2022-07-30T13:10:13;3.33;;;1.42;;
25481;SDS011;13395;50.752;4.268;2022-07-30T13:12:43;3.22;;;1.17;;
25481;SDS011;13395;50.752;4.268;2022-07-30T13:15:15;5.55;;;1.20;;
25481;SDS011;13395;50.752;4.268;2022-07-30T13:17:45;7.68;;;1.98;;
25481;SDS011;13395;50.752;4.268;2022-07-30T13:20:12;6.97;;;2.65;;
25481;SDS011;13395;50.752;4.268;2022-07-30T13:22:39;4.80;;;1.48;;
25481;SDS011;13395;50.752;4.268;2022-07-30T13:25:04;2.33;;;1.13;;
25481;SDS011;13395;50.752;4.268;2022-07-30T13:27:31;8.20;;;2.15;;
25481;SDS011;13395;50.752;4.268;2022-07-30T13:29:56;5.28;;;1.23;;
25481;SDS011;13395;50.752;4.268;2022-07-30T13:32:22;3.00;;;1.48;;
25481;SDS011;13395;50.752;4.268;2022-07-30T13:34:47;3.15;;;1.10;;
25481;SDS011;13395;50.752;4.268;2022-07-30T13:37:13;7.97;;;1.88;;
25481;SDS011;13395;50.752;4.268;2022-07-30T13:39:39;7.38;;;1.60;;
25481;SDS011;13395;50.752;4.268;2022-07-30T13:42:04;3.65;;;1.42;;
25481;SDS011;13395;50.752;4.268;2022-07-30T13:44:30;2.58;;;1.10;;
25481;SDS011;13395;50.752;4.268;2022-07-30T13:46:57;4.07;;;1.00;;
25481;SDS011;13395;50.752;4.268;2022-07-30T13:49:23;4.75;;;1.17;;
25481;SDS011;13395;50.752;4.268;2022-07-30T13:51:49;3.35;;;1.33;;
25481;SDS011;13395;50.752;4.268;2022-07-30T13:54:14;3.38;;;1.30;;
25481;SDS011;13395;50.752;4.268;2022-07-30T13:56:40;3.10;;;1.27;;
25481;SDS011;13395;50.752;4.268;2022-07-30T13:59:06;8.93;;;1.42;;
25481;SDS011;13395;50.752;4.268;2022-07-30T14:01:32;3.42;;;1.30;;
25481;SDS011;13395;50.752;4.268;2022-07-30T14:03:58;3.60;;;1.15;;
25481;SDS011;13395;50.752;4.268;2022-07-30T14:06:24;2.50;;;1.13;;
25481;SDS011;13395;50.752;4.268;2022-07-30T14:08:49;3.92;;;1.20;;
25481;SDS011;13395;50.752;4.268;2022-07-30T14:11:15;8.60;;;1.42;;
25481;SDS011;13395;50.752;4.268;2022-07-30T14:13:41;7.65;;;1.17;;
25481;SDS011;13395;50.752;4.268;2022-07-30T14:16:07;11.00;;;1.40;;
25481;SDS011;13395;50.752;4.268;2022-07-30T14:18:33;5.03;;;1.15;;
25481;SDS011;13395;50.752;4.268;2022-07-30T14:20:59;4.38;;;1.27;;
25481;SDS011;13395;50.752;4.268;2022-07-30T14:23:25;4.80;;;1.10;;
25481;SDS011;13395;50.752;4.268;2022-07-30T14:25:51;5.10;;;1.20;;
25481;SDS011;13395;50.752;4.268;2022-07-30T14:28:16;3.35;;;1.00;;
25481;SDS011;13395;50.752;4.268;2022-07-30T14:30:42;10.00;;;1.25;;
25481;SDS011;13395;50.752;4.268;2022-07-30T14:33:08;5.00;;;1.02;;
25481;SDS011;13395;50.752;4.268;2022-07-30T14:35:34;5.75;;;1.45;;
25481;SDS011;13395;50.752;4.268;2022-07-30T14:37:59;4.18;;;1.20;;
25481;SDS011;13395;50.752;4.268;2022-07-30T14:40:27;2.97;;;1.15;;
25481;SDS011;13395;50.752;4.268;2022-07-30T14:42:53;2.83;;;1.25;;
25481;SDS011;13395;50.752;4.268;2022-07-30T14:45:18;19.88;;;1.40;;
25481;SDS011;13395;50.752;4.268;2022-07-30T14:47:44;8.18;;;1.60;;
25481;SDS011;13395;50.752;4.268;2022-07-30T14:50:10;7.00;;;1.83;;
25481;SDS011;13395;50.752;4.268;2022-07-30T14:52:36;8.02;;;1.40;;
25481;SDS011;13395;50.752;4.268;2022-07-30T14:55:06;4.50;;;1.08;;
25481;SDS011;13395;50.752;4.268;2022-07-30T14:57:33;2.78;;;1.55;;
25481;SDS011;13395;50.752;4.268;2022-07-30T14:59:59;4.10;;;1.45;;
25481;SDS011;13395;50.752;4.268;2022-07-30T15:02:25;1.88;;;1.27;;
25481;SDS011;13395;50.752;4.268;2022-07-30T15:04:51;4.65;;;1.40;;
25481;SDS011;13395;50.752;4.268;2022-07-30T15:07:16;3.33;;;1.20;;
25481;SDS011;13395;50.752;4.268;2022-07-30T15:09:42;2.47;;;1.55;;
25481;SDS011;13395;50.752;4.268;2022-07-30T15:12:08;3.63;;;1.20;;
25481;SDS011;13395;50.752;4.268;2022-07-30T15:14:37;6.00;;;0.93;;
25481;SDS011;13395;50.752;4.268;2022-07-30T15:17:04;4.90;;;1.10;;
25481;SDS011;13395;50.752;4.268;2022-07-30T15:19:30;3.20;;;1.00;;
25481;SDS011;13395;50.752;4.268;2022-07-30T15:21:56;3.75;;;0.95;;
25481;SDS011;13395;50.752;4.268;2022-07-30T15:24:22;3.25;;;1.50;;
25481;SDS011;13395;50.752;4.268;2022-07-30T15:26:48;5.68;;;1.27;;
25481;SDS011;13395;50.752;4.268;2022-07-30T15:29:14;3.55;;;0.80;;
25481;SDS011;13395;50.752;4.268;2022-07-30T15:31:40;2.20;;;1.17;;
25481;SDS011;13395;50.752;4.268;2022-07-30T15:34:05;1.55;;;0.80;;
25481;SDS011;13395;50.752;4.268;2022-07-30T15:36:35;2.40;;;1.10;;
25481;SDS011;13395;50.752;4.268;2022-07-30T15:39:02;8.18;;;1.10;;
25481;SDS011;13395;50.752;4.268;2022-07-30T15:41:29;8.65;;;1.40;;
25481;SDS011;13395;50.752;4.268;2022-07-30T15:43:55;3.40;;;1.17;;